Time;durP1;ratioP1;P1;durP2;ratioP2;P2;SDS_P1;SDS_P2;PMS_P1;PMS_P2;Temp;Humidity;BMP_temperature;BMP_pressure;BME280_temperature;BME280_humidity;BME280_pressure;Samples;Min_cycle;Max_cycle;Signal;HPM_P1;HPM_P2
2023/05/19 00:12:18;;;;;;;;;;;11.90;93.70;;;;;;8361251;28;20141;-73
2023/05/19 00:16:21;;;;;;;;;;;11.90;93.70;;;;;;8386563;28;19929;-73
2023/05/19 00:20:23;;;;;;;;;;;11.80;93.80;;;;;;8387156;28;19971;-73
2023/05/19 00:24:24;;;;;;;;;;;11.70;93.70;;;;;;8381794;28;19932;-73
2023/05/19 00:28:26;;;;;;;;;;;11.70;93.70;;;;;;8401060;28;19929;-73
2023/05/19 00:32:28;;;;;;;;;;;11.60;93.90;;;;;;8386545;28;20309;-73
2023/05/19 00:36:30;;;;;;;;;;;11.60;93.90;;;;;;8387074;28;19935;-73
2023/05/19 00:40:33;;;;;;;;;;;11.60;93.90;;;;;;8368664;28;19931;-74
2023/05/19 00:44:38;;;;;;;;;;;11.50;93.90;;;;;;8367180;28;19932;-73
2023/05/19 00:48:43;;;;;;;;;;;11.50;93.90;;;;;;8368295;28;19928;-74
2023/05/19 00:52:45;;;;;;;;;;;11.50;93.90;;;;;;8370008;28;19931;-73
2023/05/19 00:56:48;;;;;;;;;;;11.50;93.90;;;;;;8368603;28;19925;-73
2023/05/19 01:00:50;;;;;;;;;;;11.40;94.00;;;;;;8386223;28;19929;-73
2023/05/19 01:04:54;;;;;;;;;;;11.40;94.00;;;;;;8383006;28;20448;-72
2023/05/19 01:08:56;;;;;;;;;;;11.40;94.10;;;;;;8398288;28;19924;-73
2023/05/19 01:12:58;;;;;;;;;;;11.40;94.10;;;;;;8378004;28;20336;-73
2023/05/19 01:17:13;;;;;;;;;;;11.30;94.10;;;;;;8385796;28;20447;-73
2023/05/19 01:21:25;;;;;;;;;;;11.30;94.20;;;;;;8387061;28;19925;-73
2023/05/19 01:25:41;;;;;;;;;;;11.20;94.10;;;;;;8396016;28;19928;-73
2023/05/19 01:30:09;;;;;;;;;;;11.20;94.20;;;;;;8383963;28;19933;-73
2023/05/19 01:34:11;;;;;;;;;;;11.10;94.20;;;;;;8364740;28;19931;-73
2023/05/19 01:38:15;;;;;;;;;;;11.10;94.10;;;;;;8387155;28;20015;-73
2023/05/19 01:42:18;;;;;;;;;;;11.00;94.00;;;;;;8389946;28;19925;-73
2023/05/19 01:46:20;;;;;;;;;;;11.00;94.10;;;;;;8390458;28;19928;-73
2023/05/19 01:50:21;;;;;;;;;;;11.00;94.30;;;;;;8371670;28;20463;-73
2023/05/19 01:54:23;;;;;;;;;;;10.90;94.30;;;;;;8390225;28;19958;-73
2023/05/19 01:58:25;;;;;;;;;;;10.90;94.20;;;;;;8382682;28;20022;-73
2023/05/19 02:02:49;;;;;;;;;;;10.80;94.30;;;;;;8375973;28;19947;-73
2023/05/19 02:06:59;;;;;;;;;;;10.80;94.30;;;;;;8356821;28;19928;-73
2023/05/19 02:11:06;;;;;;;;;;;10.70;94.30;;;;;;8382537;28;19924;-73
2023/05/19 02:15:11;;;;;;;;;;;10.70;94.30;;;;;;8373674;28;19924;-73
2023/05/19 02:19:20;;;;;;;;;;;10.60;94.50;;;;;;8387953;28;19925;-73
2023/05/19 02:23:21;;;;;;;;;;;10.60;94.40;;;;;;8380809;28;20307;-73
2023/05/19 02:27:23;;;;;;;;;;;10.60;94.60;;;;;;8369167;28;19924;-73
2023/05/19 02:31:25;;;;;;;;;;;10.50;94.50;;;;;;8380038;28;20002;-73
2023/05/19 02:35:27;;;;;;;;;;;10.50;94.50;;;;;;8383608;28;19933;-73
2023/05/19 02:39:33;;;;;;;;;;;10.50;94.60;;;;;;8385837;28;19924;-72
2023/05/19 02:43:35;;;;;;;;;;;10.50;94.60;;;;;;8386026;28;20070;-73
2023/05/19 02:47:37;;;;;;;;;;;10.40;94.50;;;;;;8370269;28;19936;-72
2023/05/19 02:51:39;;;;;;;;;;;10.40;94.60;;;;;;8384871;28;19928;-73
2023/05/19 02:55:41;;;;;;;;;;;10.40;94.70;;;;;;8387876;28;20425;-73
2023/05/19 02:59:42;;;;;;;;;;;10.30;94.60;;;;;;8376357;28;20380;-73
2023/05/19 03:03:44;;;;;;;;;;;10.30;94.80;;;;;;8390887;28;19925;-72
2023/05/19 03:07:46;;;;;;;;;;;10.30;94.70;;;;;;8378991;28;19925;-73
2023/05/19 03:11:48;;;;;;;;;;;10.30;94.80;;;;;;8382583;28;19929;-73
2023/05/19 03:15:49;;;;;;;;;;;10.20;95.10;;;;;;8376579;28;19939;-73
2023/05/19 03:19:51;;;;;;;;;;;10.20;94.80;;;;;;8346584;28;20456;-73
2023/05/19 03:23:56;;;;;;;;;;;10.20;94.90;;;;;;8371803;28;19929;-73
2023/05/19 03:27:58;;;;;;;;;;;10.20;94.90;;;;;;8369909;28;20380;-73
2023/05/19 03:32:00;;;;;;;;;;;10.10;94.80;;;;;;8374383;28;19928;-73
2023/05/19 03:36:02;;;;;;;;;;;10.10;95.00;;;;;;8384131;28;19925;-72
2023/05/19 03:40:06;;;;;;;;;;;10.10;95.10;;;;;;8386218;28;19924;-73
2023/05/19 03:44:07;;;;;;;;;;;10.10;95.00;;;;;;8389555;28;19924;-72
2023/05/19 03:48:09;;;;;;;;;;;10.00;95.10;;;;;;8385955;28;20015;-72
2023/05/19 03:52:11;;;;;;;;;;;10.00;95.30;;;;;;8401896;28;19970;-73
2023/05/19 03:56:13;;;;;;;;;;;10.00;95.20;;;;;;8381470;28;20387;-72
2023/05/19 04:00:15;;;;;;;;;;;10.00;95.40;;;;;;8387997;28;19924;-73
2023/05/19 04:04:17;;;;;;;;;;;10.00;95.50;;;;;;8376427;28;19978;-72
2023/05/19 04:08:18;;;;;;;;;;;10.00;95.40;;;;;;8385357;28;19928;-73
2023/05/19 04:12:20;;;;;;;;;;;10.00;95.50;;;;;;8381297;28;19945;-72
2023/05/19 04:16:22;;;;;;;;;;;10.00;95.40;;;;;;8378556;28;19975;-72
2023/05/19 04:20:24;;;;;;;;;;;10.00;95.70;;;;;;8389246;28;19932;-73
2023/05/19 04:24:25;;;;;;;;;;;10.00;95.70;;;;;;8368350;28;20265;-72
2023/05/19 04:28:27;;;;;;;;;;;10.10;96.00;;;;;;8381454;28;19928;-73
2023/05/19 04:32:29;;;;;;;;;;;10.10;95.90;;;;;;8397820;28;19925;-72
2023/05/19 04:36:32;;;;;;;;;;;10.20;96.20;;;;;;8391603;28;19932;-72
2023/05/19 04:40:34;;;;;;;;;;;10.20;96.10;;;;;;8397314;28;19929;-73
2023/05/19 04:44:38;;;;;;;;;;;10.20;96.10;;;;;;8390192;28;19929;-72
2023/05/19 04:48:40;;;;;;;;;;;10.30;96.30;;;;;;8381528;28;19932;-72
2023/05/19 04:52:44;;;;;;;;;;;10.30;96.50;;;;;;8386388;28;19925;-72
2023/05/19 04:56:45;;;;;;;;;;;10.50;96.80;;;;;;8374777;28;19925;-73
2023/05/19 05:00:47;;;;;;;;;;;10.60;96.80;;;;;;8394880;28;20382;-73
2023/05/19 05:04:49;;;;;;;;;;;10.60;97.10;;;;;;8385447;28;19978;-72
2023/05/19 05:08:51;;;;;;;;;;;10.70;97.00;;;;;;8390823;28;20445;-73
2023/05/19 05:12:53;;;;;;;;;;;10.80;97.20;;;;;;8396396;28;19974;-72
2023/05/19 05:16:54;;;;;;;;;;;10.90;97.30;;;;;;8390136;28;19924;-72
2023/05/19 05:20:56;;;;;;;;;;;11.00;97.60;;;;;;8371657;28;20287;-73
2023/05/19 05:24:58;;;;;;;;;;;11.10;97.50;;;;;;8373207;28;19928;-72
2023/05/19 05:29:00;;;;;;;;;;;11.10;97.50;;;;;;8383500;28;19924;-73
2023/05/19 05:33:02;;;;;;;;;;;11.20;97.90;;;;;;8413508;28;20289;-72
2023/05/19 05:37:06;;;;;;;;;;;11.30;98.10;;;;;;8396656;28;20016;-72
2023/05/19 05:41:08;;;;;;;;;;;11.40;98.20;;;;;;8384023;28;20364;-73
2023/05/19 05:45:10;;;;;;;;;;;11.60;98.40;;;;;;8385227;28;19936;-72
2023/05/19 05:49:12;;;;;;;;;;;11.60;98.50;;;;;;8363274;28;19925;-72
2023/05/19 05:53:17;;;;;;;;;;;11.80;98.50;;;;;;8366537;28;20429;-73
2023/05/19 05:57:19;;;;;;;;;;;11.90;98.80;;;;;;8383723;28;19924;-73
2023/05/19 06:01:22;;;;;;;;;;;12.00;98.70;;;;;;8377302;28;19932;-72
2023/05/19 06:05:24;;;;;;;;;;;12.10;99.00;;;;;;8378058;28;20388;-73
2023/05/19 06:09:27;;;;;;;;;;;12.20;99.10;;;;;;8386249;28;20340;-72
2023/05/19 06:13:29;;;;;;;;;;;12.40;99.50;;;;;;8384286;28;20330;-72
2023/05/19 06:17:30;;;;;;;;;;;12.50;99.50;;;;;;8366029;28;20445;-73
2023/05/19 06:21:32;;;;;;;;;;;12.60;99.40;;;;;;8380904;28;19925;-72
2023/05/19 06:25:33;;;;;;;;;;;12.70;99.70;;;;;;8365022;28;20289;-72
2023/05/19 06:29:35;;;;;;;;;;;12.80;99.90;;;;;;8395842;28;19933;-73
2023/05/19 06:33:37;;;;;;;;;;;12.90;99.90;;;;;;8383237;28;19975;-73
2023/05/19 06:37:39;;;;;;;;;;;13.10;99.90;;;;;;8378188;28;20375;-72
2023/05/19 06:41:40;;;;;;;;;;;13.20;99.90;;;;;;8384034;28;20403;-73
2023/05/19 06:45:42;;;;;;;;;;;13.40;99.90;;;;;;8386452;28;19924;-73
2023/05/19 06:49:44;;;;;;;;;;;13.50;99.90;;;;;;8383356;28;19932;-73
2023/05/19 06:53:46;;;;;;;;;;;13.60;99.90;;;;;;8388477;28;19924;-73
2023/05/19 06:57:48;;;;;;;;;;;13.60;99.90;;;;;;8381546;28;19970;-73
2023/05/19 07:01:50;;;;;;;;;;;13.60;99.90;;;;;;8388911;28;19929;-73
2023/05/19 07:05:52;;;;;;;;;;;13.60;99.90;;;;;;8371445;28;19934;-73
2023/05/19 07:09:53;;;;;;;;;;;13.70;99.90;;;;;;8390859;28;19929;-73
2023/05/19 07:13:55;;;;;;;;;;;13.70;99.90;;;;;;8385027;28;19931;-73
2023/05/19 07:17:57;;;;;;;;;;;13.90;99.90;;;;;;8384905;28;20372;-73
2023/05/19 07:21:58;;;;;;;;;;;13.90;99.90;;;;;;8391972;28;19971;-73
2023/05/19 07:26:00;;;;;;;;;;;14.00;99.90;;;;;;8389420;28;19938;-73
2023/05/19 07:30:02;;;;;;;;;;;14.00;99.90;;;;;;8371841;28;19925;-72
2023/05/19 07:34:04;;;;;;;;;;;14.10;99.90;;;;;;8384363;28;19924;-73
2023/05/19 07:38:06;;;;;;;;;;;14.10;99.90;;;;;;8386305;28;19964;-73
2023/05/19 07:42:08;;;;;;;;;;;14.20;99.90;;;;;;8390011;28;19973;-73
2023/05/19 07:46:09;;;;;;;;;;;14.40;99.90;;;;;;8388617;28;19928;-73
2023/05/19 07:50:11;;;;;;;;;;;14.50;99.90;;;;;;8390449;28;19924;-73
2023/05/19 07:54:13;;;;;;;;;;;14.70;99.90;;;;;;8381171;28;20327;-73
2023/05/19 07:58:15;;;;;;;;;;;14.80;99.90;;;;;;8361206;28;20214;-73
2023/05/19 08:02:16;;;;;;;;;;;14.90;99.90;;;;;;8390960;28;19924;-73
2023/05/19 08:06:18;;;;;;;;;;;15.00;99.90;;;;;;8388355;28;19925;-73
2023/05/19 08:10:20;;;;;;;;;;;15.10;99.90;;;;;;8382885;28;20294;-73
2023/05/19 08:14:21;;;;;;;;;;;15.10;99.90;;;;;;8388090;28;20372;-73
2023/05/19 08:18:23;;;;;;;;;;;15.10;99.90;;;;;;8386367;28;19928;-73
2023/05/19 08:22:25;;;;;;;;;;;15.10;99.90;;;;;;8368813;28;19933;-73
2023/05/19 08:26:27;;;;;;;;;;;15.20;99.90;;;;;;8386576;28;19925;-73
2023/05/19 08:30:29;;;;;;;;;;;15.20;99.90;;;;;;8392900;28;19936;-73
2023/05/19 08:34:31;;;;;;;;;;;15.30;99.90;;;;;;8388121;28;20380;-73
2023/05/19 08:38:33;;;;;;;;;;;15.40;99.90;;;;;;8369485;28;19933;-73
2023/05/19 08:42:35;;;;;;;;;;;15.40;99.90;;;;;;8387448;28;19928;-73
2023/05/19 08:46:36;;;;;;;;;;;15.50;99.90;;;;;;8381019;28;19932;-73
2023/05/19 08:50:40;;;;;;;;;;;15.50;99.90;;;;;;8381443;28;19928;-73
2023/05/19 08:54:45;;;;;;;;;;;15.50;99.90;;;;;;8385024;28;20390;-73
2023/05/19 08:58:48;;;;;;;;;;;15.60;99.90;;;;;;8384305;28;19932;-73
2023/05/19 09:02:50;;;;;;;;;;;15.70;99.90;;;;;;8383715;28;19936;-73
2023/05/19 09:07:02;;;;;;;;;;;15.80;99.90;;;;;;8374960;28;20360;-73
2023/05/19 09:11:04;;;;;;;;;;;15.90;99.90;;;;;;8358570;28;19965;-73
2023/05/19 09:15:07;;;;;;;;;;;15.90;99.90;;;;;;8360898;28;19936;-73
2023/05/19 09:19:14;;;;;;;;;;;15.90;99.90;;;;;;8358443;28;19933;-73
2023/05/19 09:23:19;;;;;;;;;;;15.90;99.90;;;;;;8361997;28;19932;-73
2023/05/19 09:27:22;;;;;;;;;;;16.00;99.90;;;;;;8363871;28;19941;-73
2023/05/19 09:31:24;;;;;;;;;;;16.20;99.90;;;;;;8361616;28;19967;-73
2023/05/19 09:35:25;;;;;;;;;;;16.40;99.90;;;;;;8346823;28;20377;-73
2023/05/19 09:39:27;;;;;;;;;;;16.60;99.90;;;;;;8360724;28;19956;-73
2023/05/19 09:43:30;;;;;;;;;;;16.70;99.90;;;;;;8373631;28;19939;-73
2023/05/19 09:47:36;;;;;;;;;;;16.90;99.90;;;;;;8362611;28;19932;-73
2023/05/19 09:51:41;;;;;;;;;;;17.00;99.90;;;;;;8361244;28;19959;-73
2023/05/19 09:55:43;;;;;;;;;;;17.10;99.90;;;;;;8363281;28;19981;-73
2023/05/19 09:59:45;;;;;;;;;;;17.20;99.90;;;;;;8376036;28;20303;-73
2023/05/19 10:03:47;;;;;;;;;;;17.30;99.90;;;;;;8342761;28;19932;-74
2023/05/19 10:07:50;;;;;;;;;;;17.30;99.90;;;;;;8361985;28;20240;-73
2023/05/19 10:11:55;;;;;;;;;;;17.40;99.90;;;;;;8339564;28;20129;-73
2023/05/19 10:15:57;;;;;;;;;;;17.50;99.90;;;;;;8365524;28;19937;-73
2023/05/19 10:20:00;;;;;;;;;;;17.50;99.90;;;;;;8357953;28;19924;-73
2023/05/19 10:24:01;;;;;;;;;;;17.50;99.90;;;;;;8372005;28;19931;-73
2023/05/19 10:28:09;;;;;;;;;;;17.50;99.90;;;;;;8364920;28;19932;-72
2023/05/19 10:32:13;;;;;;;;;;;17.50;99.90;;;;;;8368343;28;19932;-73
2023/05/19 10:36:31;;;;;;;;;;;17.60;99.90;;;;;;8362763;28;19971;-73
2023/05/19 10:40:36;;;;;;;;;;;17.70;99.90;;;;;;8359015;28;19966;-73
2023/05/19 10:44:41;;;;;;;;;;;17.70;99.90;;;;;;8361350;28;20346;-73
2023/05/19 10:48:43;;;;;;;;;;;17.80;99.90;;;;;;8363608;28;20717;-73
2023/05/19 10:52:51;;;;;;;;;;;17.90;99.90;;;;;;8358481;28;20362;-73
2023/05/19 10:56:55;;;;;;;;;;;17.90;99.90;;;;;;8356730;28;19933;-73
2023/05/19 11:01:00;;;;;;;;;;;18.00;99.90;;;;;;8344811;28;20389;-73
2023/05/19 11:05:09;;;;;;;;;;;18.10;99.90;;;;;;8362711;28;19968;-73
2023/05/19 11:09:11;;;;;;;;;;;18.10;99.90;;;;;;8357103;28;19952;-73
2023/05/19 11:13:22;;;;;;;;;;;18.20;99.90;;;;;;8371434;28;19924;-73
2023/05/19 11:17:24;;;;;;;;;;;18.20;99.90;;;;;;8354860;28;20115;-73
2023/05/19 11:21:45;;;;;;;;;;;18.30;99.90;;;;;;8340344;28;19929;-73
2023/05/19 11:25:47;;;;;;;;;;;18.40;99.90;;;;;;8357201;28;20394;-73
2023/05/19 11:29:50;;;;;;;;;;;18.50;99.90;;;;;;8354073;28;19971;-73
2023/05/19 11:33:51;;;;;;;;;;;18.50;99.90;;;;;;8357936;28;20722;-73
2023/05/19 11:37:53;;;;;;;;;;;18.60;99.90;;;;;;8349500;28;19929;-73
2023/05/19 11:41:55;;;;;;;;;;;18.80;99.90;;;;;;8365219;28;20264;-73
2023/05/19 11:45:57;;;;;;;;;;;18.90;99.90;;;;;;8358041;28;19955;-73
2023/05/19 11:49:58;;;;;;;;;;;19.00;99.90;;;;;;8355575;28;19928;-73
2023/05/19 11:54:01;;;;;;;;;;;19.00;99.90;;;;;;8354588;28;19925;-73
2023/05/19 11:58:03;;;;;;;;;;;19.00;99.90;;;;;;8374780;28;20627;-73
2023/05/19 12:02:12;;;;;;;;;;;19.00;99.90;;;;;;8341351;28;20295;-74
2023/05/19 12:06:16;;;;;;;;;;;19.00;99.90;;;;;;8361893;28;20042;-73
2023/05/19 12:10:25;;;;;;;;;;;19.00;99.90;;;;;;8355910;28;20438;-73
2023/05/19 12:14:28;;;;;;;;;;;19.00;99.90;;;;;;8340653;28;19929;-73
2023/05/19 12:18:35;;;;;;;;;;;19.00;99.90;;;;;;8363437;28;19929;-73
2023/05/19 12:22:36;;;;;;;;;;;19.00;99.90;;;;;;8360874;28;20358;-73
2023/05/19 12:26:39;;;;;;;;;;;18.90;99.90;;;;;;8367876;28;19936;-73
2023/05/19 12:30:46;;;;;;;;;;;18.90;99.80;;;;;;8364757;28;20335;-73
2023/05/19 12:34:48;;;;;;;;;;;18.80;99.90;;;;;;8362569;28;19932;-73
2023/05/19 12:38:54;;;;;;;;;;;18.80;99.80;;;;;;8344312;28;19925;-73
2023/05/19 12:42:57;;;;;;;;;;;18.90;99.50;;;;;;8371544;28;19928;-73
2023/05/19 12:47:03;;;;;;;;;;;18.90;99.10;;;;;;8354342;28;19933;-73
2023/05/19 12:51:05;;;;;;;;;;;18.90;99.50;;;;;;8356453;28;19931;-72
2023/05/19 12:55:07;;;;;;;;;;;18.90;99.40;;;;;;8377108;28;20400;-73
2023/05/19 12:59:09;;;;;;;;;;;19.00;99.40;;;;;;8376341;28;19925;-73
2023/05/19 13:03:14;;;;;;;;;;;19.10;99.90;;;;;;8359256;28;20372;-73
2023/05/19 13:07:16;;;;;;;;;;;19.20;99.40;;;;;;8369572;28;19935;-73
2023/05/19 13:11:18;;;;;;;;;;;19.40;99.50;;;;;;8376399;28;19928;-74
2023/05/19 13:15:21;;;;;;;;;;;19.50;99.80;;;;;;8366923;28;19929;-73
2023/05/19 13:19:22;;;;;;;;;;;19.60;99.50;;;;;;8357705;28;19932;-73
2023/05/19 13:23:26;;;;;;;;;;;19.70;99.90;;;;;;8350065;28;19978;-73
2023/05/19 13:27:28;;;;;;;;;;;19.80;99.70;;;;;;8343406;28;19928;-73
2023/05/19 13:31:29;;;;;;;;;;;19.90;99.20;;;;;;8358679;28;19932;-73
2023/05/19 13:35:35;;;;;;;;;;;19.90;99.40;;;;;;8378939;28;20388;-73
2023/05/19 13:39:37;;;;;;;;;;;19.90;99.30;;;;;;8361843;28;19928;-73
2023/05/19 13:43:39;;;;;;;;;;;20.00;99.20;;;;;;8365600;28;19924;-73
2023/05/19 13:47:40;;;;;;;;;;;20.10;99.20;;;;;;8364650;28;19929;-72
2023/05/19 13:51:43;;;;;;;;;;;20.10;99.50;;;;;;8353361;28;20328;-72
2023/05/19 13:55:45;;;;;;;;;;;20.20;99.60;;;;;;8358766;28;19931;-72
2023/05/19 13:59:47;;;;;;;;;;;20.30;99.60;;;;;;8343402;28;19931;-72
2023/05/19 14:04:01;;;;;;;;;;;20.30;99.50;;;;;;8360173;28;19954;-72
2023/05/19 14:08:04;;;;;;;;;;;20.40;99.30;;;;;;8357056;28;19928;-71
2023/05/19 14:12:06;;;;;;;;;;;20.40;99.60;;;;;;8359157;28;19926;-71
2023/05/19 14:16:09;;;;;;;;;;;20.40;99.00;;;;;;8359026;28;21697;-72
2023/05/19 14:20:12;;;;;;;;;;;20.50;99.30;;;;;;8354919;28;19929;-72
2023/05/19 14:24:15;;;;;;;;;;;20.60;99.20;;;;;;8338685;28;19983;-71
2023/05/19 14:28:17;;;;;;;;;;;20.80;99.20;;;;;;8355507;28;19929;-71
2023/05/19 14:32:19;;;;;;;;;;;21.00;99.20;;;;;;8356026;28;19935;-72
2023/05/19 14:36:20;;;;;;;;;;;21.20;99.50;;;;;;8356854;28;19929;-72
2023/05/19 14:40:22;;;;;;;;;;;21.40;99.70;;;;;;8357118;28;20388;-72
2023/05/19 14:44:28;;;;;;;;;;;21.60;99.70;;;;;;8361267;28;19924;-72
2023/05/19 14:48:30;;;;;;;;;;;21.70;99.30;;;;;;8353863;28;19932;-72
2023/05/19 14:52:32;;;;;;;;;;;21.70;99.10;;;;;;8338938;28;19935;-72
2023/05/19 14:56:33;;;;;;;;;;;21.70;99.80;;;;;;8357087;28;19932;-72
2023/05/19 15:00:35;;;;;;;;;;;21.70;99.20;;;;;;8359116;28;19928;-72
2023/05/19 15:04:37;;;;;;;;;;;21.70;99.10;;;;;;8356776;28;19928;-72
2023/05/19 15:08:39;;;;;;;;;;;21.70;98.80;;;;;;8356716;28;19928;-72
2023/05/19 15:12:41;;;;;;;;;;;21.80;98.90;;;;;;8358807;28;19925;-72
2023/05/19 15:16:43;;;;;;;;;;;21.80;98.70;;;;;;8359310;28;19970;-71
2023/05/19 15:20:45;;;;;;;;;;;21.80;98.60;;;;;;8365821;28;20019;-72
2023/05/19 15:24:47;;;;;;;;;;;21.70;98.50;;;;;;8363182;28;19939;-72
2023/05/19 15:28:48;;;;;;;;;;;21.70;98.10;;;;;;8353601;28;19970;-72
2023/05/19 15:32:50;;;;;;;;;;;21.80;98.50;;;;;;8357345;28;19932;-72
2023/05/19 15:36:52;;;;;;;;;;;21.80;97.90;;;;;;8338835;28;19943;-71
2023/05/19 15:40:53;;;;;;;;;;;21.90;98.00;;;;;;8370829;28;19932;-71
2023/05/19 15:44:55;;;;;;;;;;;22.10;98.10;;;;;;8354888;28;19978;-71
2023/05/19 15:48:57;;;;;;;;;;;22.30;98.30;;;;;;8354904;28;19929;-72
2023/05/19 15:52:58;;;;;;;;;;;22.50;98.40;;;;;;8336446;28;20442;-72
2023/05/19 15:57:00;;;;;;;;;;;22.50;98.20;;;;;;8334581;28;20323;-72
2023/05/19 16:01:02;;;;;;;;;;;22.80;98.70;;;;;;8353578;28;20486;-72
2023/05/19 16:05:04;;;;;;;;;;;23.40;98.90;;;;;;8355896;28;19932;-72
2023/05/19 16:09:05;;;;;;;;;;;23.90;99.30;;;;;;8353482;28;19924;-72
2023/05/19 16:13:07;;;;;;;;;;;24.40;99.80;;;;;;8355386;28;19932;-72
2023/05/19 16:17:10;;;;;;;;;;;24.90;99.90;;;;;;8352721;28;19925;-72
2023/05/19 16:21:12;;;;;;;;;;;25.20;99.50;;;;;;8355813;28;20324;-72
2023/05/19 16:25:14;;;;;;;;;;;25.10;99.80;;;;;;8357269;28;19939;-72
2023/05/19 16:29:15;;;;;;;;;;;24.80;99.50;;;;;;8347089;28;19932;-72
2023/05/19 16:33:17;;;;;;;;;;;24.50;99.20;;;;;;8350874;28;19928;-72
2023/05/19 16:37:19;;;;;;;;;;;24.70;99.40;;;;;;8353913;28;19928;-72
2023/05/19 16:41:21;;;;;;;;;;;24.60;99.10;;;;;;8352083;28;19929;-72
2023/05/19 16:45:24;;;;;;;;;;;24.20;98.70;;;;;;8356696;28;20359;-72
2023/05/19 16:49:26;;;;;;;;;;;24.00;98.70;;;;;;8354566;28;19939;-72
2023/05/19 16:53:28;;;;;;;;;;;24.10;98.50;;;;;;8337946;28;19924;-72
2023/05/19 16:57:29;;;;;;;;;;;24.20;98.40;;;;;;8357447;28;19932;-72
2023/05/19 17:01:31;;;;;;;;;;;24.40;98.70;;;;;;8351867;28;19933;-72
2023/05/19 17:05:34;;;;;;;;;;;24.40;98.60;;;;;;8354182;28;20272;-72
2023/05/19 17:09:36;;;;;;;;;;;24.10;98.20;;;;;;8348069;28;20344;-72
2023/05/19 17:13:38;;;;;;;;;;;23.80;97.80;;;;;;8350733;28;20480;-72
2023/05/19 17:17:40;;;;;;;;;;;23.50;97.30;;;;;;8366607;28;22760;-72
2023/05/19 17:21:41;;;;;;;;;;;23.30;97.20;;;;;;8350787;28;19979;-72
2023/05/19 17:25:43;;;;;;;;;;;23.00;96.90;;;;;;8351035;28;19932;-72
2023/05/19 17:29:45;;;;;;;;;;;22.80;96.60;;;;;;8357286;28;19978;-72
2023/05/19 17:33:46;;;;;;;;;;;22.60;96.20;;;;;;8354180;28;19925;-72
2023/05/19 17:37:48;;;;;;;;;;;22.40;95.70;;;;;;8349978;28;20372;-72
2023/05/19 17:41:50;;;;;;;;;;;22.20;95.50;;;;;;8356783;28;19924;-72
2023/05/19 17:45:51;;;;;;;;;;;22.10;95.60;;;;;;8340147;28;19925;-72
2023/05/19 17:49:53;;;;;;;;;;;22.00;95.40;;;;;;8358645;28;19974;-72
2023/05/19 17:53:55;;;;;;;;;;;21.80;95.00;;;;;;8360404;28;20292;-72
2023/05/19 17:57:57;;;;;;;;;;;21.60;94.80;;;;;;8362096;28;19954;-72
2023/05/19 18:01:58;;;;;;;;;;;21.50;94.70;;;;;;8346096;28;20288;-72
2023/05/19 18:06:00;;;;;;;;;;;21.30;94.40;;;;;;8361232;28;19932;-72
2023/05/19 18:10:03;;;;;;;;;;;21.10;94.20;;;;;;8374024;28;19925;-71
2023/05/19 18:14:05;;;;;;;;;;;20.90;94.00;;;;;;8341699;28;19932;-72
2023/05/19 18:18:09;;;;;;;;;;;20.80;93.90;;;;;;8369701;28;19931;-72
2023/05/19 18:22:13;;;;;;;;;;;20.70;93.80;;;;;;8354441;28;19928;-72
2023/05/19 18:26:15;;;;;;;;;;;20.60;93.80;;;;;;8360669;28;19928;-72
2023/05/19 18:30:17;;;;;;;;;;;20.50;93.70;;;;;;8357439;28;19929;-72
2023/05/19 18:34:18;;;;;;;;;;;20.40;93.70;;;;;;8357810;28;19933;-72
2023/05/19 18:38:22;;;;;;;;;;;20.30;93.70;;;;;;8358059;28;19932;-71
2023/05/19 18:42:24;;;;;;;;;;;20.30;93.70;;;;;;8354696;28;20408;-72
2023/05/19 18:46:25;;;;;;;;;;;20.20;93.60;;;;;;8357614;28;19929;-72
2023/05/19 18:50:27;;;;;;;;;;;20.10;93.50;;;;;;8352473;28;19986;-72
2023/05/19 18:54:31;;;;;;;;;;;20.00;93.50;;;;;;8357168;28;20351;-72
2023/05/19 18:58:33;;;;;;;;;;;19.90;93.60;;;;;;8357581;28;19963;-72
2023/05/19 19:02:34;;;;;;;;;;;19.80;93.50;;;;;;8357094;28;19932;-72
2023/05/19 19:06:36;;;;;;;;;;;19.70;93.40;;;;;;8342713;28;20666;-72
2023/05/19 19:10:39;;;;;;;;;;;19.60;93.40;;;;;;8347058;28;19928;-71
2023/05/19 19:14:41;;;;;;;;;;;19.50;93.40;;;;;;8355394;28;19925;-72
2023/05/19 19:18:42;;;;;;;;;;;19.30;93.30;;;;;;8354250;28;19949;-72
2023/05/19 19:22:44;;;;;;;;;;;19.20;93.30;;;;;;8357713;28;19928;-72
2023/05/19 19:26:46;;;;;;;;;;;19.10;93.30;;;;;;8361540;28;19964;-72
2023/05/19 19:30:47;;;;;;;;;;;19.00;93.20;;;;;;8367244;28;19932;-72
2023/05/19 19:34:51;;;;;;;;;;;18.90;93.20;;;;;;8361881;28;19924;-72
2023/05/19 19:38:53;;;;;;;;;;;18.80;93.20;;;;;;8365050;28;20376;-72
2023/05/19 19:42:55;;;;;;;;;;;18.70;93.10;;;;;;8356194;28;20250;-72
2023/05/19 19:46:56;;;;;;;;;;;18.60;93.10;;;;;;8357828;28;19925;-72
2023/05/19 19:50:58;;;;;;;;;;;18.50;93.10;;;;;;8357014;28;20301;-72
2023/05/19 19:55:00;;;;;;;;;;;18.50;93.00;;;;;;8355950;28;19929;-72
2023/05/19 19:59:01;;;;;;;;;;;18.30;92.90;;;;;;8345286;28;19925;-72
2023/05/19 20:03:03;;;;;;;;;;;18.20;92.90;;;;;;8350302;28;19924;-72
2023/05/19 20:07:06;;;;;;;;;;;18.10;92.90;;;;;;8335482;28;19994;-72
2023/05/19 20:11:08;;;;;;;;;;;18.00;92.80;;;;;;8336957;28;20337;-72
2023/05/19 20:15:09;;;;;;;;;;;18.00;92.80;;;;;;8355502;28;19924;-72
2023/05/19 20:19:11;;;;;;;;;;;17.90;92.80;;;;;;8356561;28;19990;-72
2023/05/19 20:23:14;;;;;;;;;;;17.80;92.90;;;;;;8356936;28;20484;-72
2023/05/19 20:27:16;;;;;;;;;;;17.60;92.80;;;;;;8358422;28;19985;-72
2023/05/19 20:31:20;;;;;;;;;;;17.50;92.70;;;;;;8355050;28;19925;-72
2023/05/19 20:35:22;;;;;;;;;;;17.50;92.70;;;;;;8354037;28;20345;-72
2023/05/19 20:39:24;;;;;;;;;;;17.40;92.60;;;;;;8355192;28;19925;-73
2023/05/19 20:43:26;;;;;;;;;;;17.40;92.50;;;;;;8356097;28;19924;-72
2023/05/19 20:47:28;;;;;;;;;;;17.30;92.30;;;;;;8350156;28;19929;-72
2023/05/19 20:51:31;;;;;;;;;;;17.20;92.20;;;;;;8351700;28;20384;-72
2023/05/19 20:55:34;;;;;;;;;;;17.10;92.20;;;;;;8352469;28;19928;-72
2023/05/19 20:59:37;;;;;;;;;;;17.10;92.10;;;;;;8356746;28;20002;-72
2023/05/19 21:03:38;;;;;;;;;;;17.00;92.10;;;;;;8390235;28;19925;-72
2023/05/19 21:07:40;;;;;;;;;;;17.00;92.10;;;;;;8379093;28;20347;-72
2023/05/19 21:11:42;;;;;;;;;;;17.00;92.10;;;;;;8379848;28;20372;-72
2023/05/19 21:15:43;;;;;;;;;;;17.00;92.10;;;;;;8389127;28;19982;-72
2023/05/19 21:19:45;;;;;;;;;;;16.90;92.10;;;;;;8384725;28;20448;-72
2023/05/19 21:23:48;;;;;;;;;;;16.90;92.20;;;;;;8369667;28;19929;-72
2023/05/19 21:27:50;;;;;;;;;;;16.80;92.30;;;;;;8403252;28;19925;-72
2023/05/19 21:31:54;;;;;;;;;;;16.80;92.30;;;;;;8374896;28;19929;-72
2023/05/19 21:35:57;;;;;;;;;;;16.70;92.40;;;;;;8359005;28;19928;-72
2023/05/19 21:39:59;;;;;;;;;;;16.70;92.50;;;;;;8379456;28;20411;-72
2023/05/19 21:44:02;;;;;;;;;;;16.70;92.60;;;;;;8386315;28;19924;-72
2023/05/19 21:48:04;;;;;;;;;;;16.70;92.70;;;;;;8367275;28;20499;-72
2023/05/19 21:52:06;;;;;;;;;;;16.70;92.80;;;;;;8380285;28;20363;-72
2023/05/19 21:56:08;;;;;;;;;;;16.60;92.80;;;;;;8386712;28;19928;-73
2023/05/19 22:00:11;;;;;;;;;;;16.60;92.90;;;;;;8369912;28;19929;-72
2023/05/19 22:04:13;;;;;;;;;;;16.50;92.90;;;;;;8376476;28;20273;-72
2023/05/19 22:08:17;;;;;;;;;;;16.50;93.00;;;;;;8380279;28;19925;-72
2023/05/19 22:12:19;;;;;;;;;;;16.50;93.00;;;;;;8375257;28;20380;-72
2023/05/19 22:16:20;;;;;;;;;;;16.40;93.10;;;;;;8379381;28;20384;-72
2023/05/19 22:20:22;;;;;;;;;;;16.40;93.10;;;;;;8372394;28;19979;-72
2023/05/19 22:24:24;;;;;;;;;;;16.30;93.00;;;;;;8381228;28;19924;-72
2023/05/19 22:28:26;;;;;;;;;;;16.30;93.10;;;;;;8381137;28;19932;-72
2023/05/19 22:32:27;;;;;;;;;;;16.30;93.20;;;;;;8378858;28;20433;-72
2023/05/19 22:36:30;;;;;;;;;;;16.20;93.10;;;;;;8358499;28;19929;-72
2023/05/19 22:40:31;;;;;;;;;;;16.20;93.10;;;;;;8377021;28;20015;-72
2023/05/19 22:44:33;;;;;;;;;;;16.20;93.10;;;;;;8388378;28;20338;-72
2023/05/19 22:48:35;;;;;;;;;;;16.10;93.10;;;;;;8376470;28;19925;-72
2023/05/19 22:52:36;;;;;;;;;;;16.10;93.10;;;;;;8382332;28;19924;-72
2023/05/19 22:56:38;;;;;;;;;;;16.10;93.10;;;;;;8378397;28;19993;-72
2023/05/19 23:00:40;;;;;;;;;;;16.00;93.00;;;;;;8366693;28;19932;-72
2023/05/19 23:04:41;;;;;;;;;;;16.00;93.00;;;;;;8374500;28;19956;-72
2023/05/19 23:08:44;;;;;;;;;;;15.90;92.90;;;;;;8367247;28;19925;-72
2023/05/19 23:12:47;;;;;;;;;;;15.80;92.90;;;;;;8368796;28;19925;-72
2023/05/19 23:16:49;;;;;;;;;;;15.80;92.90;;;;;;8380587;28;19928;-71
2023/05/19 23:20:51;;;;;;;;;;;15.70;92.80;;;;;;8355204;28;20399;-72
2023/05/19 23:24:52;;;;;;;;;;;15.70;92.90;;;;;;8377057;28;19932;-72
2023/05/19 23:28:54;;;;;;;;;;;15.60;92.80;;;;;;8377109;28;19924;-72
2023/05/19 23:32:55;;;;;;;;;;;15.60;92.80;;;;;;8374748;28;19931;-72
2023/05/19 23:36:57;;;;;;;;;;;15.50;92.70;;;;;;8388621;28;20105;-72
2023/05/19 23:40:59;;;;;;;;;;;15.40;92.80;;;;;;8376729;28;19924;-72